메인 페이지
METAR-TAF:

METAR-TAF

공항 :

캠프 험프리스

평택, 대한민국

위도: 36-56N, 경도: 127-00E, 고도: 16m

현재 날씨관측

예보는 59분 전, 07:56시(UTC)에 발표되었습니다.
8kt
온도 22°C
습도 60%
기압 1016 hPa
시정: 16.1km
고도 4600ft 상공 구름 조금
고도 19000ft 상공 구름 보통

METAR: RKSG 210756Z AUTO 17008KT 10SM FEW046 SCT190 22/14 A3001 RMK AO2 SLP165 T02220135 PWINO $

시각: 17:55 (08:55 UTC)

예보

예보는 1 시간 35분 전, 07:20시(UTC)에 발표되었습니다.
예보 대상 시간: 21일 07시부터 22일 10시까지 (UTC)
남남동6kt
시정 10km 이상
고도 15000ft 상공 구름 조금
고도 20000ft 상공 구름 조금
전환 중
21일 10시부터 21일 11시까지 (UTC)
남남동6kt
시정 10km 이상
고도 6000ft 상공 구름 조금
전환 중
21일 16시부터 21일 17시까지 (UTC)
남남동8kt
시정 10km 이상
고도 4000ft 상공 구름 많음
고도 18000ft 상공 구름 많음
전환 중
22일 03시부터 22일 04시까지 (UTC)
남남동6kt
시정 10km 이상
고도 7000ft 상공 구름 많음
고도 16000ft 상공 흐림

TAF: RKSG 210720Z 2107/2210 16006KT 9999 FEW150 FEW200 QNH3001INS BECMG 2110/2111 15006KT 9999 FEW060 QNH2999INS BECMG 2116/2117 15008KT 9999 BKN040 BKN180 QNH2993INS BECMG 2203/2204 16006KT 9999 BKN070 OVC160 QNH2985INS TX23/2107Z TN08/2119Z

4,000개 이상의 공항 관측 자료 및 예보 (METAR 및 TAF 보고).

지도상에서 검색 가능한 기상관측소가 노란 점과 빨간 점으로 표시되어 있습니다.

기상관측소 명을 보려면 표시 위로 마우스를 이동하세요.

날씨 관측과 예보를 보려면 클릭하세요.

지도 변경 : 확대하려면 엑스 표시가 있는 녹색 버튼, 축소하려면 빼기 표시가 있는 녹색 버튼, 다음 페이지의 지도를 보려면 녹색 화살표를 클릭하세요.


METAR-TAF: